Time;durP1;ratioP1;P1;durP2;ratioP2;P2;SDS_P1;SDS_P2;PMS_P1;PMS_P2;Temp;Humidity;BMP_temperature;BMP_pressure;BME280_temperature;BME280_humidity;BME280_pressure;Samples;Min_cycle;Max_cycle;Signal;HPM_P1;HPM_P2
2021/08/26 00:00:00;;;;;;;24.92;4.97;;;;;;;;;;5042568;28;20535;-74
2021/08/26 00:07:56;;;;;;;20.58;4.28;;;;;;;;;;5037305;28;20041;-74
2021/08/26 00:10:24;;;;;;;26.95;4.70;;;;;;;;;;5027675;28;20044;-74
2021/08/26 00:12:51;;;;;;;27.35;4.88;;;;;;;;;;5041933;28;20475;-74
2021/08/26 00:15:17;;;;;;;18.63;4.70;;;;;;;;;;5040281;28;20044;-74
2021/08/26 00:17:45;;;;;;;26.77;5.35;;;;;;;;;;5032203;28;20083;-75
2021/08/26 00:20:12;;;;;;;21.00;3.28;;;;;;;;;;5027399;28;20506;-74
2021/08/26 00:22:38;;;;;;;18.20;3.95;;;;;;;;;;5043502;28;20460;-74
2021/08/26 00:25:06;;;;;;;23.55;4.78;;;;;;;;;;5047982;28;20049;-75
2021/08/26 00:27:32;;;;;;;21.70;4.10;;;;;;;;;;5023036;28;21045;-74
2021/08/26 00:29:58;;;;;;;27.42;4.85;;;;;;;;;;5041357;28;20388;-74
2021/08/26 00:32:24;;;;;;;18.40;3.95;;;;;;;;;;5043562;28;20119;-75
2021/08/26 00:34:51;;;;;;;19.20;3.70;;;;;;;;;;5025452;28;20052;-74
2021/08/26 00:37:17;;;;;;;17.25;4.75;;;;;;;;;;5063235;28;20059;-74
2021/08/26 00:39:43;;;;;;;21.38;4.13;;;;;;;;;;5032160;28;20124;-74
2021/08/26 00:42:09;;;;;;;16.58;3.60;;;;;;;;;;5044775;28;20051;-74
2021/08/26 00:44:36;;;;;;;17.55;3.42;;;;;;;;;;5037513;28;20492;-74
2021/08/26 00:47:02;;;;;;;14.65;3.50;;;;;;;;;;5036668;28;20144;-74
2021/08/26 00:49:30;;;;;;;20.27;3.83;;;;;;;;;;5053111;28;20083;-74
2021/08/26 00:51:56;;;;;;;22.00;3.95;;;;;;;;;;5058712;28;20051;-74
2021/08/26 00:54:22;;;;;;;18.27;3.63;;;;;;;;;;5049088;28;20078;-74
2021/08/26 00:56:48;;;;;;;25.38;4.00;;;;;;;;;;5039811;28;20103;-74
2021/08/26 00:59:15;;;;;;;25.40;4.45;;;;;;;;;;5057095;28;20075;-74
2021/08/26 01:01:47;;;;;;;16.95;3.83;;;;;;;;;;5037799;28;20087;-74
2021/08/26 01:04:18;;;;;;;21.23;4.38;;;;;;;;;;5037107;28;20048;-74
2021/08/26 01:06:52;;;;;;;17.88;4.00;;;;;;;;;;5059982;28;20036;-74
2021/08/26 01:09:21;;;;;;;19.17;4.13;;;;;;;;;;5053040;28;20068;-75
2021/08/26 01:11:47;;;;;;;20.60;3.28;;;;;;;;;;5051353;28;20517;-74
2021/08/26 01:14:15;;;;;;;24.70;4.75;;;;;;;;;;5039367;28;20162;-74
2021/08/26 01:16:42;;;;;;;16.08;3.55;;;;;;;;;;5053947;28;20051;-74
2021/08/26 01:19:08;;;;;;;19.50;3.78;;;;;;;;;;5038046;28;20514;-72
2021/08/26 01:21:34;;;;;;;19.25;3.30;;;;;;;;;;5034051;28;20106;-74
2021/08/26 01:24:03;;;;;;;22.17;3.65;;;;;;;;;;5042110;28;20063;-74
2021/08/26 01:26:32;;;;;;;18.92;3.38;;;;;;;;;;5081182;28;20087;-74
2021/08/26 01:28:59;;;;;;;15.00;2.63;;;;;;;;;;5045775;28;20085;-74
2021/08/26 01:31:25;;;;;;;15.50;2.60;;;;;;;;;;5057601;28;20472;-74
2021/08/26 01:33:51;;;;;;;20.05;3.47;;;;;;;;;;5038955;28;20055;-74
2021/08/26 01:36:18;;;;;;;12.98;2.40;;;;;;;;;;5035030;28;20060;-74
2021/08/26 01:38:44;;;;;;;15.93;3.60;;;;;;;;;;5073405;28;20101;-74
2021/08/26 01:41:11;;;;;;;17.52;3.80;;;;;;;;;;5049397;28;20097;-74
2021/08/26 01:43:37;;;;;;;19.20;4.00;;;;;;;;;;5032701;28;20119;-74
2021/08/26 01:46:03;;;;;;;16.92;2.63;;;;;;;;;;5037953;28;20052;-74
2021/08/26 01:48:30;;;;;;;16.30;3.97;;;;;;;;;;5037235;28;20487;-74
2021/08/26 01:50:56;;;;;;;13.48;3.15;;;;;;;;;;5061668;28;20168;-74
2021/08/26 01:53:22;;;;;;;17.55;3.08;;;;;;;;;;5043990;28;20045;-74
2021/08/26 01:55:49;;;;;;;14.95;3.55;;;;;;;;;;5037931;28;20048;-74
2021/08/26 01:58:15;;;;;;;18.17;3.40;;;;;;;;;;5050223;28;20509;-74
2021/08/26 02:00:41;;;;;;;16.60;3.42;;;;;;;;;;5069990;28;20085;-74
2021/08/26 02:03:07;;;;;;;14.00;2.72;;;;;;;;;;5045596;28;20055;-74
2021/08/26 02:05:33;;;;;;;16.77;3.10;;;;;;;;;;5040816;28;20048;-74
2021/08/26 02:07:59;;;;;;;18.92;3.55;;;;;;;;;;5041858;28;20060;-74
2021/08/26 02:10:26;;;;;;;14.32;2.95;;;;;;;;;;5071559;28;20049;-74
2021/08/26 02:12:52;;;;;;;20.45;3.45;;;;;;;;;;5036725;28;20222;-74
2021/08/26 02:15:19;;;;;;;13.32;2.13;;;;;;;;;;5039712;28;20036;-74
2021/08/26 02:17:45;;;;;;;13.38;2.22;;;;;;;;;;5039315;28;20091;-74
2021/08/26 02:20:12;;;;;;;10.35;2.88;;;;;;;;;;5057448;28;20056;-74
2021/08/26 02:22:38;;;;;;;11.95;2.50;;;;;;;;;;5045110;28;20498;-74
2021/08/26 02:25:05;;;;;;;17.80;3.90;;;;;;;;;;5045899;28;20040;-74
2021/08/26 02:27:32;;;;;;;16.75;4.13;;;;;;;;;;5065811;28;20389;-74
2021/08/26 02:29:58;;;;;;;13.73;2.90;;;;;;;;;;5062865;28;20072;-74
2021/08/26 02:32:29;;;;;;;17.80;3.72;;;;;;;;;;5045244;28;20396;-74
2021/08/26 02:34:56;;;;;;;16.90;3.55;;;;;;;;;;5057990;28;20060;-74
2021/08/26 02:37:22;;;;;;;26.13;4.00;;;;;;;;;;5035136;28;21242;-74
2021/08/26 02:39:48;;;;;;;20.77;3.40;;;;;;;;;;5048117;28;20515;-74
2021/08/26 02:42:14;;;;;;;12.70;2.55;;;;;;;;;;5037700;28;20052;-74
2021/08/26 02:44:41;;;;;;;17.55;3.78;;;;;;;;;;5037202;28;20041;-74
2021/08/26 02:47:07;;;;;;;16.17;2.97;;;;;;;;;;5052468;28;20052;-74
2021/08/26 02:49:33;;;;;;;20.02;3.35;;;;;;;;;;5051286;28;20076;-74
2021/08/26 02:51:59;;;;;;;18.23;2.88;;;;;;;;;;5030133;28;20045;-74
2021/08/26 02:54:25;;;;;;;12.57;3.25;;;;;;;;;;5056430;28;20445;-74
2021/08/26 02:56:51;;;;;;;13.48;2.35;;;;;;;;;;5065693;28;20064;-74
2021/08/26 02:59:17;;;;;;;19.60;3.75;;;;;;;;;;5054643;28;20068;-74
2021/08/26 03:01:44;;;;;;;18.98;3.17;;;;;;;;;;5057522;28;20556;-74
2021/08/26 03:04:10;;;;;;;16.30;3.60;;;;;;;;;;5049559;28;20052;-74
2021/08/26 03:06:36;;;;;;;19.30;3.67;;;;;;;;;;5039939;28;20048;-74
2021/08/26 03:09:02;;;;;;;17.02;3.42;;;;;;;;;;5055479;28;20041;-74
2021/08/26 03:11:28;;;;;;;22.95;3.53;;;;;;;;;;5058315;28;20041;-74
2021/08/26 03:13:54;;;;;;;17.42;3.92;;;;;;;;;;5059474;28;20044;-74
2021/08/26 03:16:21;;;;;;;17.48;3.75;;;;;;;;;;5066424;28;20356;-74
2021/08/26 03:18:47;;;;;;;18.50;3.50;;;;;;;;;;5054734;28;20497;-74
2021/08/26 03:21:14;;;;;;;20.95;3.80;;;;;;;;;;5073156;28;20155;-74
2021/08/26 03:23:40;;;;;;;21.38;5.03;;;;;;;;;;5060653;28;20045;-74
2021/08/26 03:26:06;;;;;;;23.20;4.63;;;;;;;;;;5068520;28;20047;-74
2021/08/26 03:28:33;;;;;;;28.25;5.55;;;;;;;;;;5068263;28;20041;-74
2021/08/26 03:30:59;;;;;;;22.48;4.80;;;;;;;;;;5038834;28;20056;-74
2021/08/26 03:33:25;;;;;;;19.50;4.22;;;;;;;;;;5042796;28;20049;-74
2021/08/26 03:35:51;;;;;;;22.27;4.28;;;;;;;;;;5056257;28;20048;-74
2021/08/26 03:38:18;;;;;;;21.50;4.57;;;;;;;;;;5052929;28;20586;-74
2021/08/26 03:40:44;;;;;;;20.58;5.22;;;;;;;;;;5063387;28;20576;-74
2021/08/26 03:43:10;;;;;;;23.63;5.55;;;;;;;;;;5043793;28;20238;-74
2021/08/26 03:45:37;;;;;;;25.58;5.20;;;;;;;;;;5036674;28;20040;-74
2021/08/26 03:48:03;;;;;;;20.20;4.55;;;;;;;;;;5043809;28;20067;-74
2021/08/26 03:50:29;;;;;;;25.92;5.18;;;;;;;;;;5043610;28;20068;-74
2021/08/26 03:52:56;;;;;;;22.40;5.22;;;;;;;;;;5070417;28;20047;-74
2021/08/26 03:55:22;;;;;;;27.02;5.72;;;;;;;;;;5038438;28;20044;-73
2021/08/26 03:57:48;;;;;;;25.42;5.00;;;;;;;;;;5058434;28;20044;-74
2021/08/26 04:00:14;;;;;;;16.35;4.85;;;;;;;;;;5037989;28;20052;-73
2021/08/26 04:02:41;;;;;;;29.20;5.60;;;;;;;;;;5046389;28;20139;-73
2021/08/26 04:05:07;;;;;;;22.13;4.82;;;;;;;;;;5042814;28;20540;-74
2021/08/26 04:07:33;;;;;;;27.40;4.50;;;;;;;;;;5055195;28;20037;-74
2021/08/26 04:09:59;;;;;;;26.90;5.13;;;;;;;;;;5059552;28;20044;-74
2021/08/26 04:12:27;;;;;;;17.90;5.05;;;;;;;;;;5074914;28;20114;-74
2021/08/26 04:14:53;;;;;;;23.83;5.95;;;;;;;;;;5049919;28;20091;-74
2021/08/26 04:17:20;;;;;;;27.08;5.45;;;;;;;;;;5055270;28;20479;-74
2021/08/26 04:19:46;;;;;;;22.08;5.78;;;;;;;;;;5054970;28;20102;-74
2021/08/26 04:22:13;;;;;;;26.15;5.63;;;;;;;;;;5072013;28;20466;-74
2021/08/26 04:24:39;;;;;;;25.33;5.65;;;;;;;;;;5044371;28;20098;-74
2021/08/26 04:27:05;;;;;;;21.27;4.85;;;;;;;;;;5050735;28;20037;-74
2021/08/26 04:29:31;;;;;;;23.02;5.13;;;;;;;;;;5055337;28;20040;-74
2021/08/26 04:31:58;;;;;;;29.63;6.38;;;;;;;;;;5055113;28;20468;-74
2021/08/26 04:34:24;;;;;;;18.52;5.03;;;;;;;;;;5066374;28;20115;-74
2021/08/26 04:36:50;;;;;;;18.27;4.88;;;;;;;;;;5068893;28;20079;-73
2021/08/26 04:39:16;;;;;;;20.75;4.38;;;;;;;;;;5056024;28;20082;-74
2021/08/26 04:41:43;;;;;;;18.23;5.13;;;;;;;;;;5041733;28;20411;-74
2021/08/26 04:44:09;;;;;;;23.08;5.20;;;;;;;;;;5061937;28;20147;-74
2021/08/26 04:46:35;;;;;;;21.42;4.95;;;;;;;;;;5025293;28;20045;-74
2021/08/26 04:49:01;;;;;;;23.73;5.50;;;;;;;;;;5043531;28;20044;-74
2021/08/26 04:51:28;;;;;;;26.10;6.80;;;;;;;;;;5050330;28;20036;-72
2021/08/26 04:53:54;;;;;;;23.17;5.15;;;;;;;;;;5057763;28;20036;-74
2021/08/26 04:56:20;;;;;;;21.92;5.35;;;;;;;;;;5062022;28;20106;-75
2021/08/26 04:58:46;;;;;;;18.77;5.53;;;;;;;;;;5069199;28;20432;-74
2021/08/26 05:01:13;;;;;;;16.88;3.72;;;;;;;;;;5075873;28;20254;-74
2021/08/26 05:03:39;;;;;;;22.27;4.40;;;;;;;;;;5044599;28;20075;-74
2021/08/26 05:06:05;;;;;;;23.45;5.55;;;;;;;;;;5065007;28;20048;-74
2021/08/26 05:08:32;;;;;;;21.35;4.53;;;;;;;;;;5042267;28;20399;-74
2021/08/26 05:10:58;;;;;;;27.77;5.53;;;;;;;;;;5050428;28;20407;-74
2021/08/26 05:13:24;;;;;;;25.15;4.40;;;;;;;;;;5030403;28;20054;-73
2021/08/26 05:15:50;;;;;;;26.98;5.15;;;;;;;;;;5057175;28;20822;-73
2021/08/26 05:18:17;;;;;;;24.80;5.30;;;;;;;;;;5054854;28;20037;-77
2021/08/26 05:20:43;;;;;;;22.40;5.45;;;;;;;;;;5051024;28;20044;-73
2021/08/26 05:23:09;;;;;;;24.30;5.43;;;;;;;;;;5044146;28;20062;-73
2021/08/26 05:25:35;;;;;;;31.83;5.50;;;;;;;;;;5028485;28;20161;-74
2021/08/26 05:28:01;;;;;;;34.03;7.68;;;;;;;;;;5032142;28;20487;-74
2021/08/26 05:30:28;;;;;;;28.42;6.13;;;;;;;;;;5035174;28;20041;-75
2021/08/26 05:32:55;;;;;;;27.88;5.72;;;;;;;;;;5037278;28;20546;-72
2021/08/26 05:35:21;;;;;;;26.10;6.60;;;;;;;;;;5069012;28;20049;-74
2021/08/26 05:37:47;;;;;;;23.73;5.30;;;;;;;;;;5045679;28;20215;-73
2021/08/26 05:40:13;;;;;;;33.85;5.80;;;;;;;;;;5050090;28;20057;-73
2021/08/26 05:42:39;;;;;;;31.70;5.50;;;;;;;;;;5048154;28;20056;-74
2021/08/26 05:45:06;;;;;;;27.80;6.57;;;;;;;;;;5052123;28;20041;-74
2021/08/26 05:47:32;;;;;;;36.55;5.63;;;;;;;;;;5054491;28;20039;-74
2021/08/26 05:49:59;;;;;;;28.13;6.78;;;;;;;;;;5058042;28;20477;-74
2021/08/26 05:52:25;;;;;;;27.13;5.88;;;;;;;;;;5050084;28;20619;-74
2021/08/26 05:54:51;;;;;;;34.38;7.00;;;;;;;;;;5041356;28;20452;-74
2021/08/26 05:57:17;;;;;;;28.58;6.07;;;;;;;;;;5044048;28;20045;-74
2021/08/26 05:59:43;;;;;;;23.13;6.40;;;;;;;;;;5041195;28;20460;-74
2021/08/26 06:02:10;;;;;;;28.17;7.63;;;;;;;;;;5036079;28;20381;-74
2021/08/26 06:04:36;;;;;;;31.05;6.80;;;;;;;;;;5039509;28;20067;-74
2021/08/26 06:07:02;;;;;;;28.95;5.60;;;;;;;;;;5035366;28;20151;-74
2021/08/26 06:09:28;;;;;;;28.77;6.45;;;;;;;;;;5053881;28;20073;-74
2021/08/26 06:11:54;;;;;;;30.67;6.28;;;;;;;;;;5056076;28;20040;-74
2021/08/26 06:14:21;;;;;;;30.45;6.68;;;;;;;;;;5038013;28;20037;-74
2021/08/26 06:16:47;;;;;;;33.83;7.00;;;;;;;;;;5058842;28;20151;-74
2021/08/26 06:19:13;;;;;;;30.40;6.78;;;;;;;;;;5055908;28;20491;-73
2021/08/26 06:21:39;;;;;;;32.17;8.07;;;;;;;;;;5054875;28;20033;-73
2021/08/26 06:24:07;;;;;;;27.92;6.75;;;;;;;;;;5043837;28;20045;-73
2021/08/26 06:26:34;;;;;;;21.73;5.43;;;;;;;;;;5037452;28;20052;-73
2021/08/26 06:29:00;;;;;;;40.20;7.43;;;;;;;;;;5068192;28;20119;-73
2021/08/26 06:31:27;;;;;;;26.52;7.07;;;;;;;;;;5039345;28;20045;-73
2021/08/26 06:33:53;;;;;;;26.75;6.13;;;;;;;;;;5053689;28;20083;-73
2021/08/26 06:36:19;;;;;;;28.33;5.93;;;;;;;;;;5048978;28;20056;-73
2021/08/26 06:38:45;;;;;;;35.72;7.03;;;;;;;;;;5060071;28;20037;-73
2021/08/26 06:41:11;;;;;;;26.73;6.13;;;;;;;;;;5054017;28;20373;-73
2021/08/26 06:43:38;;;;;;;28.08;6.57;;;;;;;;;;5041364;28;20041;-73
2021/08/26 06:46:05;;;;;;;38.88;7.20;;;;;;;;;;5054926;28;20517;-73
2021/08/26 06:48:31;;;;;;;31.30;6.28;;;;;;;;;;5053986;28;20049;-73
2021/08/26 06:50:57;;;;;;;32.05;6.70;;;;;;;;;;5054741;28;20045;-73
2021/08/26 06:53:24;;;;;;;29.30;5.80;;;;;;;;;;5057203;28;20044;-73
2021/08/26 06:55:50;;;;;;;34.85;7.28;;;;;;;;;;5057860;28;20404;-73
2021/08/26 06:58:16;;;;;;;34.17;6.38;;;;;;;;;;5061641;28;20047;-73
2021/08/26 07:00:42;;;;;;;35.38;6.88;;;;;;;;;;5040156;28;20044;-73
2021/08/26 07:03:08;;;;;;;30.80;7.40;;;;;;;;;;5052559;28;20084;-73
2021/08/26 07:05:34;;;;;;;35.33;7.03;;;;;;;;;;5060054;28;20514;-72
2021/08/26 07:08:01;;;;;;;33.83;6.88;;;;;;;;;;5057893;28;20204;-73
2021/08/26 07:10:27;;;;;;;33.80;6.80;;;;;;;;;;5037525;28;20219;-73
2021/08/26 07:12:53;;;;;;;23.70;5.97;;;;;;;;;;5034863;28;20048;-73
2021/08/26 07:15:24;;;;;;;31.30;6.10;;;;;;;;;;5054157;28;20051;-73
2021/08/26 07:17:50;;;;;;;36.30;6.30;;;;;;;;;;5035813;28;20123;-73
2021/08/26 07:20:16;;;;;;;34.38;6.78;;;;;;;;;;5057827;28;20513;-73
2021/08/26 07:22:43;;;;;;;26.63;5.57;;;;;;;;;;5056869;28;20040;-72
2021/08/26 07:25:10;;;;;;;35.80;6.53;;;;;;;;;;5058042;28;20052;-73
2021/08/26 07:27:36;;;;;;;30.67;7.82;;;;;;;;;;5060258;28;20264;-73
2021/08/26 07:30:03;;;;;;;37.13;8.63;;;;;;;;;;5056055;28;20052;-73
2021/08/26 07:32:29;;;;;;;28.48;6.70;;;;;;;;;;5039261;28;20040;-73
2021/08/26 07:34:56;;;;;;;32.47;7.32;;;;;;;;;;5037872;28;20045;-73
2021/08/26 07:37:22;;;;;;;33.13;7.10;;;;;;;;;;5036235;28;20045;-72
2021/08/26 07:39:48;;;;;;;28.73;6.25;;;;;;;;;;5038791;28;20068;-72
2021/08/26 07:42:14;;;;;;;27.08;6.78;;;;;;;;;;5044162;28;20064;-73
2021/08/26 07:44:41;;;;;;;26.00;6.10;;;;;;;;;;5053669;28;20132;-73
2021/08/26 07:47:07;;;;;;;38.97;7.13;;;;;;;;;;5059266;28;20070;-73
2021/08/26 07:49:33;;;;;;;36.03;7.38;;;;;;;;;;5038179;28;20049;-73
2021/08/26 07:51:59;;;;;;;35.60;8.68;;;;;;;;;;5041265;28;20506;-73
2021/08/26 07:54:25;;;;;;;35.47;7.18;;;;;;;;;;5057071;28;20040;-72
2021/08/26 07:56:52;;;;;;;35.92;7.85;;;;;;;;;;5042567;28;20211;-73
2021/08/26 07:59:18;;;;;;;29.08;6.53;;;;;;;;;;5023616;28;20337;-72
2021/08/26 08:01:44;;;;;;;35.85;7.78;;;;;;;;;;5037474;28;20040;-72
2021/08/26 08:04:10;;;;;;;24.40;5.70;;;;;;;;;;5057338;28;20044;-72
2021/08/26 08:06:36;;;;;;;29.52;6.65;;;;;;;;;;5064864;28;20708;-72
2021/08/26 08:09:03;;;;;;;28.58;6.25;;;;;;;;;;5051064;28;20047;-72
2021/08/26 08:11:29;;;;;;;24.50;5.30;;;;;;;;;;5048315;28;20056;-72
2021/08/26 08:13:55;;;;;;;29.08;7.18;;;;;;;;;;5061273;28;20094;-72
2021/08/26 08:16:21;;;;;;;36.55;6.47;;;;;;;;;;5061563;28;20081;-72
2021/08/26 08:18:47;;;;;;;26.45;5.95;;;;;;;;;;5051808;28;20074;-72
2021/08/26 08:21:14;;;;;;;24.27;5.35;;;;;;;;;;5041512;28;20052;-72
2021/08/26 08:23:40;;;;;;;27.08;5.57;;;;;;;;;;5049467;28;20052;-72
2021/08/26 08:26:10;;;;;;;27.30;6.18;;;;;;;;;;5064145;28;20044;-72
2021/08/26 08:28:37;;;;;;;29.15;6.35;;;;;;;;;;5069580;28;20040;-72
2021/08/26 08:31:04;;;;;;;24.98;6.28;;;;;;;;;;5040064;28;20210;-72
2021/08/26 08:33:30;;;;;;;28.35;5.90;;;;;;;;;;5044731;28;20049;-72
2021/08/26 08:35:57;;;;;;;25.45;6.32;;;;;;;;;;5059793;28;20056;-72
2021/08/26 08:38:23;;;;;;;25.75;5.43;;;;;;;;;;5045906;28;20072;-72
2021/08/26 08:40:49;;;;;;;23.88;5.60;;;;;;;;;;5062999;28;20450;-72
2021/08/26 08:43:16;;;;;;;19.33;5.25;;;;;;;;;;5068181;28;20383;-72
2021/08/26 08:45:44;;;;;;;20.60;4.93;;;;;;;;;;5052000;28;20048;-72
2021/08/26 08:48:10;;;;;;;20.65;4.90;;;;;;;;;;5078986;28;20409;-72
2021/08/26 08:50:37;;;;;;;19.30;5.43;;;;;;;;;;5058629;28;20344;-72
2021/08/26 08:53:03;;;;;;;24.80;5.22;;;;;;;;;;5065984;28;20185;-72
2021/08/26 08:55:30;;;;;;;25.95;6.10;;;;;;;;;;5045143;28;20363;-72
2021/08/26 08:57:56;;;;;;;17.70;5.50;;;;;;;;;;5054722;28;20041;-72
2021/08/26 09:00:23;;;;;;;24.58;5.35;;;;;;;;;;5053818;28;20044;-72
2021/08/26 09:02:50;;;;;;;27.73;5.75;;;;;;;;;;5070213;28;20063;-72
2021/08/26 09:05:17;;;;;;;26.20;6.18;;;;;;;;;;5062244;28;20116;-72
2021/08/26 09:07:43;;;;;;;25.70;5.60;;;;;;;;;;5047152;28;20049;-72
2021/08/26 09:10:10;;;;;;;20.17;4.50;;;;;;;;;;5051478;28;20127;-72
2021/08/26 09:12:42;;;;;;;19.50;4.85;;;;;;;;;;5058457;28;20053;-72
2021/08/26 09:15:09;;;;;;;24.90;6.05;;;;;;;;;;5049250;28;20067;-72
2021/08/26 09:17:35;;;;;;;22.67;5.85;;;;;;;;;;5050484;28;20100;-72
2021/08/26 09:20:03;;;;;;;20.67;4.97;;;;;;;;;;5047671;28;20051;-72
2021/08/26 09:22:31;;;;;;;21.85;5.03;;;;;;;;;;5067182;28;20162;-72
2021/08/26 09:24:58;;;;;;;24.00;5.45;;;;;;;;;;5068467;28;20048;-72
2021/08/26 09:27:34;;;;;;;26.10;5.25;;;;;;;;;;5051026;28;20036;-72
2021/08/26 09:30:01;;;;;;;24.90;5.15;;;;;;;;;;5048030;28;20209;-72
2021/08/26 09:32:34;;;;;;;23.77;5.10;;;;;;;;;;5080118;28;20135;-72
2021/08/26 09:35:15;;;;;;;20.40;5.32;;;;;;;;;;5068684;28;20097;-72
2021/08/26 09:37:46;;;;;;;21.83;4.70;;;;;;;;;;5067236;28;20405;-72
2021/08/26 09:40:13;;;;;;;23.17;5.72;;;;;;;;;;5042541;28;20045;-72
2021/08/26 09:42:40;;;;;;;20.25;4.90;;;;;;;;;;5046151;28;20123;-72
2021/08/26 09:45:16;;;;;;;21.13;6.13;;;;;;;;;;5067017;28;20055;-72
2021/08/26 09:48:01;;;;;;;17.98;4.47;;;;;;;;;;5067349;28;20051;-73
2021/08/26 09:50:36;;;;;;;22.73;5.00;;;;;;;;;;5044990;28;20045;-72
2021/08/26 09:53:02;;;;;;;20.45;4.80;;;;;;;;;;5050529;28;20136;-73
2021/08/26 09:55:49;;;;;;;25.73;5.38;;;;;;;;;;5069031;28;20040;-72
2021/08/26 09:58:16;;;;;;;15.18;4.72;;;;;;;;;;5046535;28;20045;-73
2021/08/26 10:00:42;;;;;;;16.25;3.90;;;;;;;;;;5045551;28;20123;-73
2021/08/26 10:03:11;;;;;;;18.88;4.65;;;;;;;;;;5049362;28;20094;-73
2021/08/26 10:05:38;;;;;;;14.52;3.97;;;;;;;;;;5068180;28;20399;-71
2021/08/26 10:08:06;;;;;;;16.65;4.43;;;;;;;;;;5045182;28;20437;-73
2021/08/26 10:10:32;;;;;;;13.80;4.05;;;;;;;;;;5051147;28;20480;-73
2021/08/26 10:13:00;;;;;;;15.18;3.60;;;;;;;;;;5047589;28;20036;-73
2021/08/26 10:15:27;;;;;;;17.35;3.97;;;;;;;;;;5068072;28;20567;-73
2021/08/26 10:17:53;;;;;;;19.38;4.70;;;;;;;;;;5068155;28;20464;-73
2021/08/26 10:20:20;;;;;;;20.67;4.55;;;;;;;;;;5048359;28;20484;-73
2021/08/26 10:22:47;;;;;;;15.63;4.47;;;;;;;;;;5058791;28;20032;-73
2021/08/26 10:25:14;;;;;;;15.77;4.45;;;;;;;;;;5043689;28;20056;-73
2021/08/26 10:27:40;;;;;;;18.55;4.47;;;;;;;;;;5045448;28;20061;-73
2021/08/26 10:30:07;;;;;;;18.67;4.65;;;;;;;;;;5059200;28;20036;-73
2021/08/26 10:32:33;;;;;;;19.63;5.00;;;;;;;;;;5067338;28;20040;-73
2021/08/26 10:35:05;;;;;;;16.90;4.03;;;;;;;;;;5056661;28;20045;-74
2021/08/26 10:37:43;;;;;;;15.55;4.85;;;;;;;;;;5065636;28;20124;-73
2021/08/26 10:40:29;;;;;;;18.92;4.43;;;;;;;;;;5042086;28;20049;-73
2021/08/26 10:42:56;;;;;;;15.02;4.30;;;;;;;;;;5064859;28;20044;-73
2021/08/26 10:45:25;;;;;;;19.38;4.75;;;;;;;;;;5040883;28;20141;-73
2021/08/26 10:47:52;;;;;;;19.95;4.53;;;;;;;;;;5061218;28;20396;-75
2021/08/26 10:50:20;;;;;;;20.00;5.05;;;;;;;;;;5045534;28;20068;-73
2021/08/26 10:53:03;;;;;;;22.23;6.00;;;;;;;;;;5060846;28;20432;-73
2021/08/26 10:55:43;;;;;;;17.80;4.55;;;;;;;;;;5063916;28;20059;-74
2021/08/26 10:58:25;;;;;;;20.33;4.78;;;;;;;;;;5064226;28;20036;-74
2021/08/26 11:00:54;;;;;;;18.52;4.80;;;;;;;;;;5061039;28;20079;-74
2021/08/26 11:06:11;;;;;;;19.73;5.18;;;;;;;;;;5070781;28;20048;-74
2021/08/26 11:08:39;;;;;;;21.77;4.78;;;;;;;;;;5067322;28;20487;-74
2021/08/26 11:11:24;;;;;;;17.98;4.65;;;;;;;;;;5065734;28;20041;-74
2021/08/26 11:13:50;;;;;;;17.92;4.20;;;;;;;;;;5044519;28;20396;-74
2021/08/26 11:16:23;;;;;;;19.50;5.07;;;;;;;;;;5041013;28;20049;-74
2021/08/26 11:18:54;;;;;;;21.75;4.85;;;;;;;;;;5060045;28;20447;-74
2021/08/26 11:21:38;;;;;;;18.95;5.05;;;;;;;;;;5053133;28;20052;-74
2021/08/26 11:24:05;;;;;;;23.73;5.00;;;;;;;;;;5068878;28;20127;-73
2021/08/26 11:26:45;;;;;;;19.48;4.53;;;;;;;;;;5042345;28;20065;-73
2021/08/26 11:29:20;;;;;;;16.98;4.30;;;;;;;;;;5048887;28;20359;-73
2021/08/26 11:31:57;;;;;;;19.58;4.55;;;;;;;;;;5051449;28;20072;-73
2021/08/26 11:34:31;;;;;;;20.27;4.95;;;;;;;;;;5050620;28;20036;-73
2021/08/26 11:37:04;;;;;;;18.95;5.60;;;;;;;;;;5068469;28;20404;-73
2021/08/26 11:39:30;;;;;;;;;;;;;;;;;;5065538;28;20036;-73
2021/08/26 11:41:56;;;;;;;16.92;4.32;;;;;;;;;;5066353;28;19928;-73
2021/08/26 11:44:23;;;;;;;17.38;4.50;;;;;;;;;;5040910;28;20423;-73
2021/08/26 11:46:49;;;;;;;22.50;5.50;;;;;;;;;;5053522;28;20089;-73
2021/08/26 11:49:15;;;;;;;16.33;3.75;;;;;;;;;;5035992;28;20519;-73
2021/08/26 11:51:41;;;;;;;16.42;4.30;;;;;;;;;;5041660;28;20063;-73
2021/08/26 11:54:15;;;;;;;20.05;4.47;;;;;;;;;;5063972;28;20463;-73
2021/08/26 11:56:43;;;;;;;19.65;4.38;;;;;;;;;;5049487;28;20446;-73
2021/08/26 11:59:23;;;;;;;15.98;3.47;;;;;;;;;;5063049;28;20400;-73
2021/08/26 12:01:49;;;;;;;19.27;3.00;;;;;;;;;;5049920;28;20195;-73
2021/08/26 12:04:15;;;;;;;13.35;2.83;;;;;;;;;;5048765;28;20133;-73
2021/08/26 12:06:48;;;;;;;10.35;2.53;;;;;;;;;;5051423;28;20055;-73
2021/08/26 12:09:14;;;;;;;9.45;1.88;;;;;;;;;;5068819;28;20068;-73
2021/08/26 12:11:41;;;;;;;7.90;1.50;;;;;;;;;;5034464;28;20064;-73
2021/08/26 12:14:09;;;;;;;9.65;1.50;;;;;;;;;;5059374;28;20203;-73
2021/08/26 12:16:36;;;;;;;7.60;1.98;;;;;;;;;;5062719;28;20036;-73
2021/08/26 12:19:04;;;;;;;7.60;1.65;;;;;;;;;;5046126;28;20045;-74
2021/08/26 12:21:30;;;;;;;10.57;1.50;;;;;;;;;;5046084;28;20360;-73
2021/08/26 12:23:57;;;;;;;6.97;1.23;;;;;;;;;;5068765;28;20047;-74
2021/08/26 12:26:23;;;;;;;6.47;1.55;;;;;;;;;;5049925;28;20063;-73
2021/08/26 12:28:56;;;;;;;8.00;1.40;;;;;;;;;;5070312;28;20127;-73
2021/08/26 12:31:22;;;;;;;5.53;1.00;;;;;;;;;;5048918;28;20396;-73
2021/08/26 12:34:06;;;;;;;6.57;1.00;;;;;;;;;;5066979;28;20076;-73
2021/08/26 12:36:33;;;;;;;5.72;1.08;;;;;;;;;;5057809;28;20080;-73
2021/08/26 12:38:59;;;;;;;5.90;0.90;;;;;;;;;;5062638;28;20044;-73
2021/08/26 12:41:26;;;;;;;5.72;1.08;;;;;;;;;;5068207;28;20131;-74
2021/08/26 12:43:54;;;;;;;7.38;1.02;;;;;;;;;;5066135;28;20387;-73
2021/08/26 12:46:22;;;;;;;8.13;1.38;;;;;;;;;;5065417;28;20095;-73
2021/08/26 12:48:49;;;;;;;6.78;1.23;;;;;;;;;;5046460;28;20051;-73
2021/08/26 12:51:21;;;;;;;6.70;0.80;;;;;;;;;;5068281;28;20044;-73
2021/08/26 12:53:49;;;;;;;6.83;0.97;;;;;;;;;;5068847;28;20055;-74
2021/08/26 12:56:20;;;;;;;8.02;1.00;;;;;;;;;;5065227;28;20124;-73
2021/08/26 12:58:54;;;;;;;9.60;1.60;;;;;;;;;;5069707;28;20075;-73
2021/08/26 13:01:22;;;;;;;4.32;1.05;;;;;;;;;;5058505;28;20055;-74
2021/08/26 13:03:50;;;;;;;5.45;1.10;;;;;;;;;;5055087;28;20499;-73
2021/08/26 13:06:33;;;;;;;9.88;1.52;;;;;;;;;;5068383;28;20057;-73
2021/08/26 13:09:05;;;;;;;6.60;1.10;;;;;;;;;;5065252;28;20408;-73
2021/08/26 13:11:32;;;;;;;6.82;1.27;;;;;;;;;;5056703;28;20052;-74
2021/08/26 13:13:58;;;;;;;5.93;1.27;;;;;;;;;;5046622;28;20044;-74
2021/08/26 13:16:25;;;;;;;7.05;1.10;;;;;;;;;;5064819;28;20045;-73
2021/08/26 13:18:51;;;;;;;7.93;1.20;;;;;;;;;;5063280;28;20059;-73
2021/08/26 13:21:17;;;;;;;5.18;1.00;;;;;;;;;;5057677;28;20071;-73
2021/08/26 13:23:44;;;;;;;10.38;1.10;;;;;;;;;;5063465;28;20041;-73
2021/08/26 13:26:11;;;;;;;7.88;1.25;;;;;;;;;;5068307;28;20063;-73
2021/08/26 13:28:37;;;;;;;8.00;1.50;;;;;;;;;;5059819;28;20085;-73
2021/08/26 13:31:03;;;;;;;4.72;1.20;;;;;;;;;;5050708;28;20044;-73
2021/08/26 13:33:30;;;;;;;6.25;1.15;;;;;;;;;;5050161;28;20078;-73
2021/08/26 13:35:56;;;;;;;7.43;1.23;;;;;;;;;;5042178;28;20064;-73
2021/08/26 13:38:22;;;;;;;7.43;1.10;;;;;;;;;;5040163;28;20048;-73
2021/08/26 13:40:48;;;;;;;5.00;0.70;;;;;;;;;;5062382;28;20506;-73
2021/08/26 13:43:14;;;;;;;3.67;0.80;;;;;;;;;;5063568;28;20047;-73
2021/08/26 13:45:41;;;;;;;9.20;1.20;;;;;;;;;;5046790;28;20399;-73
2021/08/26 13:48:07;;;;;;;8.48;1.27;;;;;;;;;;5060140;28;20052;-73
2021/08/26 13:50:34;;;;;;;7.63;1.25;;;;;;;;;;5046278;28;20060;-73
2021/08/26 13:53:00;;;;;;;4.43;1.00;;;;;;;;;;5065447;28;20041;-73
2021/08/26 13:55:27;;;;;;;11.00;1.30;;;;;;;;;;5068318;28;20047;-73
2021/08/26 13:57:54;;;;;;;7.68;1.00;;;;;;;;;;5055678;28;20049;-73
2021/08/26 14:00:20;;;;;;;5.70;1.27;;;;;;;;;;5050468;28;20048;-73
2021/08/26 14:02:46;;;;;;;9.68;1.40;;;;;;;;;;5064626;28;20056;-73
2021/08/26 14:05:13;;;;;;;7.15;1.25;;;;;;;;;;5064511;28;20037;-73
2021/08/26 14:07:39;;;;;;;8.98;1.20;;;;;;;;;;5049895;28;20120;-73
2021/08/26 14:10:05;;;;;;;11.32;1.23;;;;;;;;;;5066415;28;20044;-73
2021/08/26 14:12:31;;;;;;;7.75;1.33;;;;;;;;;;5068443;28;20041;-73
2021/08/26 14:14:58;;;;;;;7.18;1.27;;;;;;;;;;5051285;28;20037;-73
2021/08/26 14:17:24;;;;;;;5.18;1.05;;;;;;;;;;5065687;28;20044;-73
2021/08/26 14:19:52;;;;;;;4.22;1.02;;;;;;;;;;5036452;28;20053;-73
2021/08/26 14:22:20;;;;;;;9.45;1.15;;;;;;;;;;5073819;28;20484;-73
2021/08/26 14:24:47;;;;;;;4.78;1.35;;;;;;;;;;5064212;28;20052;-73
2021/08/26 14:27:14;;;;;;;6.68;1.05;;;;;;;;;;5050315;28;20098;-73
2021/08/26 14:29:41;;;;;;;5.18;0.98;;;;;;;;;;5067571;28;20037;-73
2021/08/26 14:32:07;;;;;;;6.80;1.50;;;;;;;;;;5071387;28;20049;-74
2021/08/26 14:34:34;;;;;;;4.32;1.02;;;;;;;;;;5051687;28;20348;-74
2021/08/26 14:37:00;;;;;;;5.32;1.10;;;;;;;;;;5041564;28;20419;-74
2021/08/26 14:39:26;;;;;;;7.75;1.23;;;;;;;;;;5049836;28;20056;-74
2021/08/26 14:41:52;;;;;;;8.20;1.45;;;;;;;;;;5061947;28;20043;-74